Terminal Aerodrome Forecast
Issued by NWS

Home | Current Version | Previous Version | Text Only | Print | Product List | Glossary On
Versions: 1 2 3 4 5 6 7 8 9 10 11 12 13 14 15 16 17 18 19 20 21 22 23 24 25 26 27 28 29 30
000
FTUS45 KGGW 241720
TAFGDV
TAF
KGDV 241720Z 2418/2518 30008KT P6SM VCSH BKN030
      TEMPO 2418/2422 5SM -SHSN
     FM242200 31010KT P6SM VCSH BKN025
     FM250300 31007KT P6SM OVC020=

USA.gov is the U.S. government's official web portal to all federal, state and local government web resources and services.